sensor_id;sensor_type;location;lat;lon;timestamp;temperature;humidity
22813;DHT22;11573;51.334;3.244;2023-08-08T00:00:50;14.50;99.90
22813;DHT22;11573;51.334;3.244;2023-08-08T00:03:17;14.50;99.90
22813;DHT22;11573;51.334;3.244;2023-08-08T00:05:44;14.50;99.90
22813;DHT22;11573;51.334;3.244;2023-08-08T00:08:11;14.40;99.90
22813;DHT22;11573;51.334;3.244;2023-08-08T00:10:38;14.40;99.90
22813;DHT22;11573;51.334;3.244;2023-08-08T00:13:05;14.40;99.90
22813;DHT22;11573;51.334;3.244;2023-08-08T00:15:32;14.30;99.90
22813;DHT22;11573;51.334;3.244;2023-08-08T00:17:59;14.30;99.90
22813;DHT22;11573;51.334;3.244;2023-08-08T00:20:26;14.30;99.90
22813;DHT22;11573;51.334;3.244;2023-08-08T00:22:53;14.30;99.90
22813;DHT22;11573;51.334;3.244;2023-08-08T00:25:20;14.30;99.90
22813;DHT22;11573;51.334;3.244;2023-08-08T00:27:48;14.20;99.90
22813;DHT22;11573;51.334;3.244;2023-08-08T00:30:16;14.20;99.90
22813;DHT22;11573;51.334;3.244;2023-08-08T00:32:43;14.20;99.90
22813;DHT22;11573;51.334;3.244;2023-08-08T00:35:10;14.20;99.90
22813;DHT22;11573;51.334;3.244;2023-08-08T00:37:37;14.20;99.90
22813;DHT22;11573;51.334;3.244;2023-08-08T00:40:05;14.30;99.90
22813;DHT22;11573;51.334;3.244;2023-08-08T00:42:32;14.40;99.90
22813;DHT22;11573;51.334;3.244;2023-08-08T00:45:00;14.50;99.90
22813;DHT22;11573;51.334;3.244;2023-08-08T00:47:31;14.50;99.90
22813;DHT22;11573;51.334;3.244;2023-08-08T00:50:02;14.60;99.90
22813;DHT22;11573;51.334;3.244;2023-08-08T00:52:29;14.70;99.90
22813;DHT22;11573;51.334;3.244;2023-08-08T00:54:57;14.80;99.90
22813;DHT22;11573;51.334;3.244;2023-08-08T00:57:25;15.00;99.90
22813;DHT22;11573;51.334;3.244;2023-08-08T00:59:52;15.10;99.90
22813;DHT22;11573;51.334;3.244;2023-08-08T01:02:19;15.20;99.90
22813;DHT22;11573;51.334;3.244;2023-08-08T01:04:46;15.30;99.90
22813;DHT22;11573;51.334;3.244;2023-08-08T01:07:24;15.30;99.90
22813;DHT22;11573;51.334;3.244;2023-08-08T01:09:55;15.40;99.90
22813;DHT22;11573;51.334;3.244;2023-08-08T01:12:25;15.50;99.90
22813;DHT22;11573;51.334;3.244;2023-08-08T01:14:54;15.50;99.90
22813;DHT22;11573;51.334;3.244;2023-08-08T01:17:22;15.50;99.90
22813;DHT22;11573;51.334;3.244;2023-08-08T01:19:50;15.50;99.90
22813;DHT22;11573;51.334;3.244;2023-08-08T01:22:37;15.50;99.90
22813;DHT22;11573;51.334;3.244;2023-08-08T01:25:05;15.50;99.90
22813;DHT22;11573;51.334;3.244;2023-08-08T01:27:33;15.40;99.90
22813;DHT22;11573;51.334;3.244;2023-08-08T01:30:01;15.40;99.90
22813;DHT22;11573;51.334;3.244;2023-08-08T01:32:28;15.40;99.90
22813;DHT22;11573;51.334;3.244;2023-08-08T01:34:55;15.40;99.90
22813;DHT22;11573;51.334;3.244;2023-08-08T01:37:31;15.30;99.90
22813;DHT22;11573;51.334;3.244;2023-08-08T01:40:00;15.40;99.90
22813;DHT22;11573;51.334;3.244;2023-08-08T01:42:29;15.50;99.90
22813;DHT22;11573;51.334;3.244;2023-08-08T01:44:57;15.60;99.90
22813;DHT22;11573;51.334;3.244;2023-08-08T01:47:24;15.60;99.90
22813;DHT22;11573;51.334;3.244;2023-08-08T01:49:51;15.60;99.90
22813;DHT22;11573;51.334;3.244;2023-08-08T01:52:18;15.70;99.90
22813;DHT22;11573;51.334;3.244;2023-08-08T01:54:45;15.70;99.90
22813;DHT22;11573;51.334;3.244;2023-08-08T01:57:12;15.70;99.90
22813;DHT22;11573;51.334;3.244;2023-08-08T01:59:39;15.80;99.90
22813;DHT22;11573;51.334;3.244;2023-08-08T02:02:06;15.70;99.90
22813;DHT22;11573;51.334;3.244;2023-08-08T02:04:33;15.70;99.90
22813;DHT22;11573;51.334;3.244;2023-08-08T02:07:00;15.80;99.90
22813;DHT22;11573;51.334;3.244;2023-08-08T02:09:28;15.70;99.90
22813;DHT22;11573;51.334;3.244;2023-08-08T02:11:55;15.80;99.90
22813;DHT22;11573;51.334;3.244;2023-08-08T02:14:22;15.80;99.90
22813;DHT22;11573;51.334;3.244;2023-08-08T02:16:49;15.80;99.90
22813;DHT22;11573;51.334;3.244;2023-08-08T02:19:16;15.80;99.90
22813;DHT22;11573;51.334;3.244;2023-08-08T02:21:43;15.90;99.90
22813;DHT22;11573;51.334;3.244;2023-08-08T02:24:10;15.80;99.90
22813;DHT22;11573;51.334;3.244;2023-08-08T02:26:37;15.90;99.90
22813;DHT22;11573;51.334;3.244;2023-08-08T02:29:07;15.90;99.90
22813;DHT22;11573;51.334;3.244;2023-08-08T02:31:35;15.90;99.90
22813;DHT22;11573;51.334;3.244;2023-08-08T02:34:02;16.00;99.90
22813;DHT22;11573;51.334;3.244;2023-08-08T02:36:29;16.00;99.90
22813;DHT22;11573;51.334;3.244;2023-08-08T02:38:56;15.90;99.90
22813;DHT22;11573;51.334;3.244;2023-08-08T02:41:23;15.90;99.90
22813;DHT22;11573;51.334;3.244;2023-08-08T02:43:50;15.90;99.90
22813;DHT22;11573;51.334;3.244;2023-08-08T02:46:18;15.90;99.90
22813;DHT22;11573;51.334;3.244;2023-08-08T02:48:45;15.80;99.90
22813;DHT22;11573;51.334;3.244;2023-08-08T02:51:12;15.80;99.90
22813;DHT22;11573;51.334;3.244;2023-08-08T02:53:40;15.80;99.90
22813;DHT22;11573;51.334;3.244;2023-08-08T02:56:07;15.80;99.90
22813;DHT22;11573;51.334;3.244;2023-08-08T02:58:38;15.80;99.90
22813;DHT22;11573;51.334;3.244;2023-08-08T03:01:07;15.80;99.90
22813;DHT22;11573;51.334;3.244;2023-08-08T03:03:35;15.90;99.90
22813;DHT22;11573;51.334;3.244;2023-08-08T03:06:03;15.90;99.90
22813;DHT22;11573;51.334;3.244;2023-08-08T03:08:30;15.80;99.90
22813;DHT22;11573;51.334;3.244;2023-08-08T03:10:58;15.80;99.90
22813;DHT22;11573;51.334;3.244;2023-08-08T03:13:27;15.90;99.90
22813;DHT22;11573;51.334;3.244;2023-08-08T03:15:55;15.90;99.90
22813;DHT22;11573;51.334;3.244;2023-08-08T03:18:24;15.90;99.90
22813;DHT22;11573;51.334;3.244;2023-08-08T03:20:53;15.90;99.90
22813;DHT22;11573;51.334;3.244;2023-08-08T03:23:22;16.00;99.90
22813;DHT22;11573;51.334;3.244;2023-08-08T03:25:51;16.00;99.90
22813;DHT22;11573;51.334;3.244;2023-08-08T03:28:18;16.00;99.90
22813;DHT22;11573;51.334;3.244;2023-08-08T03:30:46;16.00;99.90
22813;DHT22;11573;51.334;3.244;2023-08-08T03:33:13;16.00;99.90
22813;DHT22;11573;51.334;3.244;2023-08-08T03:35:40;15.90;99.90
22813;DHT22;11573;51.334;3.244;2023-08-08T03:38:08;15.90;99.90
22813;DHT22;11573;51.334;3.244;2023-08-08T03:40:35;15.70;99.90
22813;DHT22;11573;51.334;3.244;2023-08-08T03:43:02;15.50;99.90
22813;DHT22;11573;51.334;3.244;2023-08-08T03:45:29;15.40;99.90
22813;DHT22;11573;51.334;3.244;2023-08-08T03:47:56;15.20;99.90
22813;DHT22;11573;51.334;3.244;2023-08-08T03:50:23;15.20;99.90
22813;DHT22;11573;51.334;3.244;2023-08-08T03:52:51;15.30;99.90
22813;DHT22;11573;51.334;3.244;2023-08-08T03:55:18;15.20;99.90
22813;DHT22;11573;51.334;3.244;2023-08-08T03:57:45;15.10;99.90
22813;DHT22;11573;51.334;3.244;2023-08-08T04:00:12;15.10;99.90
22813;DHT22;11573;51.334;3.244;2023-08-08T04:02:39;15.10;99.90
22813;DHT22;11573;51.334;3.244;2023-08-08T04:05:06;15.10;99.90
22813;DHT22;11573;51.334;3.244;2023-08-08T04:07:33;15.00;99.90
22813;DHT22;11573;51.334;3.244;2023-08-08T04:10:01;15.00;99.90
22813;DHT22;11573;51.334;3.244;2023-08-08T04:12:28;14.90;99.90
22813;DHT22;11573;51.334;3.244;2023-08-08T04:14:55;14.80;99.90
22813;DHT22;11573;51.334;3.244;2023-08-08T04:17:22;14.80;99.90
22813;DHT22;11573;51.334;3.244;2023-08-08T04:19:49;14.70;99.90
22813;DHT22;11573;51.334;3.244;2023-08-08T04:22:17;14.60;99.90
22813;DHT22;11573;51.334;3.244;2023-08-08T04:24:44;14.60;99.90
22813;DHT22;11573;51.334;3.244;2023-08-08T04:27:11;14.60;99.90
22813;DHT22;11573;51.334;3.244;2023-08-08T04:29:38;14.60;99.90
22813;DHT22;11573;51.334;3.244;2023-08-08T04:32:05;14.60;99.90
22813;DHT22;11573;51.334;3.244;2023-08-08T04:34:32;14.70;99.90
22813;DHT22;11573;51.334;3.244;2023-08-08T04:36:59;14.60;99.90
22813;DHT22;11573;51.334;3.244;2023-08-08T04:39:26;14.60;99.90
22813;DHT22;11573;51.334;3.244;2023-08-08T04:41:54;14.70;99.90
22813;DHT22;11573;51.334;3.244;2023-08-08T04:44:21;14.60;99.90
22813;DHT22;11573;51.334;3.244;2023-08-08T04:46:47;14.60;99.90
22813;DHT22;11573;51.334;3.244;2023-08-08T04:49:14;14.70;99.90
22813;DHT22;11573;51.334;3.244;2023-08-08T04:51:41;14.80;99.90
22813;DHT22;11573;51.334;3.244;2023-08-08T04:54:08;14.90;99.90
22813;DHT22;11573;51.334;3.244;2023-08-08T04:56:35;15.00;99.90
22813;DHT22;11573;51.334;3.244;2023-08-08T04:59:02;15.00;99.90
22813;DHT22;11573;51.334;3.244;2023-08-08T05:01:29;15.10;99.90
22813;DHT22;11573;51.334;3.244;2023-08-08T05:03:56;15.20;99.90
22813;DHT22;11573;51.334;3.244;2023-08-08T05:06:23;15.20;99.90
22813;DHT22;11573;51.334;3.244;2023-08-08T05:08:51;15.40;99.90
22813;DHT22;11573;51.334;3.244;2023-08-08T05:11:19;15.40;99.90
22813;DHT22;11573;51.334;3.244;2023-08-08T05:13:46;15.30;99.90
22813;DHT22;11573;51.334;3.244;2023-08-08T05:16:13;15.30;99.90
22813;DHT22;11573;51.334;3.244;2023-08-08T05:18:40;15.50;99.90
22813;DHT22;11573;51.334;3.244;2023-08-08T05:21:07;15.60;99.90
22813;DHT22;11573;51.334;3.244;2023-08-08T05:23:34;15.80;99.90
22813;DHT22;11573;51.334;3.244;2023-08-08T05:26:01;16.40;99.90
22813;DHT22;11573;51.334;3.244;2023-08-08T05:28:28;16.60;99.90
22813;DHT22;11573;51.334;3.244;2023-08-08T05:30:55;16.70;99.90
22813;DHT22;11573;51.334;3.244;2023-08-08T05:33:23;16.60;99.90
22813;DHT22;11573;51.334;3.244;2023-08-08T05:35:50;16.50;99.90
22813;DHT22;11573;51.334;3.244;2023-08-08T05:38:17;16.70;99.90
22813;DHT22;11573;51.334;3.244;2023-08-08T05:40:44;16.80;99.90
22813;DHT22;11573;51.334;3.244;2023-08-08T05:43:11;16.70;99.90
22813;DHT22;11573;51.334;3.244;2023-08-08T05:45:44;16.50;99.90
22813;DHT22;11573;51.334;3.244;2023-08-08T05:48:11;16.50;99.90
22813;DHT22;11573;51.334;3.244;2023-08-08T05:50:39;16.80;99.90
22813;DHT22;11573;51.334;3.244;2023-08-08T05:53:07;17.00;99.90
22813;DHT22;11573;51.334;3.244;2023-08-08T05:55:34;17.20;99.90
22813;DHT22;11573;51.334;3.244;2023-08-08T05:58:01;17.40;99.90
22813;DHT22;11573;51.334;3.244;2023-08-08T06:00:28;17.30;99.90
22813;DHT22;11573;51.334;3.244;2023-08-08T06:02:55;17.40;99.90
22813;DHT22;11573;51.334;3.244;2023-08-08T06:05:23;17.60;99.90
22813;DHT22;11573;51.334;3.244;2023-08-08T06:07:51;17.80;99.90
22813;DHT22;11573;51.334;3.244;2023-08-08T06:10:18;18.00;99.90
22813;DHT22;11573;51.334;3.244;2023-08-08T06:12:45;18.10;99.90
22813;DHT22;11573;51.334;3.244;2023-08-08T06:15:12;17.90;99.90
22813;DHT22;11573;51.334;3.244;2023-08-08T06:17:39;17.70;99.90
22813;DHT22;11573;51.334;3.244;2023-08-08T06:20:06;17.40;99.90
22813;DHT22;11573;51.334;3.244;2023-08-08T06:22:36;17.10;99.90
22813;DHT22;11573;51.334;3.244;2023-08-08T06:25:04;16.90;99.90
22813;DHT22;11573;51.334;3.244;2023-08-08T06:27:31;16.70;99.90
22813;DHT22;11573;51.334;3.244;2023-08-08T06:29:58;16.60;99.90
22813;DHT22;11573;51.334;3.244;2023-08-08T06:32:26;16.50;99.90
22813;DHT22;11573;51.334;3.244;2023-08-08T06:34:53;16.50;99.90
22813;DHT22;11573;51.334;3.244;2023-08-08T06:37:21;16.40;99.90
22813;DHT22;11573;51.334;3.244;2023-08-08T06:39:48;16.30;99.90
22813;DHT22;11573;51.334;3.244;2023-08-08T06:42:15;16.10;99.90
22813;DHT22;11573;51.334;3.244;2023-08-08T06:44:53;16.00;99.90
22813;DHT22;11573;51.334;3.244;2023-08-08T06:47:20;16.10;99.90
22813;DHT22;11573;51.334;3.244;2023-08-08T06:49:47;16.20;99.90
22813;DHT22;11573;51.334;3.244;2023-08-08T06:52:14;16.20;99.90
22813;DHT22;11573;51.334;3.244;2023-08-08T06:54:41;16.30;99.90
22813;DHT22;11573;51.334;3.244;2023-08-08T06:57:08;16.40;99.90
22813;DHT22;11573;51.334;3.244;2023-08-08T06:59:35;16.40;99.90
22813;DHT22;11573;51.334;3.244;2023-08-08T07:02:02;16.40;99.90
22813;DHT22;11573;51.334;3.244;2023-08-08T07:04:30;16.30;99.90
22813;DHT22;11573;51.334;3.244;2023-08-08T07:06:57;16.20;99.90
22813;DHT22;11573;51.334;3.244;2023-08-08T07:09:24;16.30;99.90
22813;DHT22;11573;51.334;3.244;2023-08-08T07:11:51;16.40;99.90
22813;DHT22;11573;51.334;3.244;2023-08-08T07:14:18;16.40;99.90
22813;DHT22;11573;51.334;3.244;2023-08-08T07:16:45;16.30;99.90
22813;DHT22;11573;51.334;3.244;2023-08-08T07:19:12;16.40;99.90
22813;DHT22;11573;51.334;3.244;2023-08-08T07:21:39;16.50;99.90
22813;DHT22;11573;51.334;3.244;2023-08-08T07:24:06;16.50;99.90
22813;DHT22;11573;51.334;3.244;2023-08-08T07:26:33;16.60;99.90
22813;DHT22;11573;51.334;3.244;2023-08-08T07:29:00;16.50;99.90
22813;DHT22;11573;51.334;3.244;2023-08-08T07:31:27;16.60;99.90
22813;DHT22;11573;51.334;3.244;2023-08-08T07:33:54;16.70;99.90
22813;DHT22;11573;51.334;3.244;2023-08-08T07:36:21;16.80;99.90
22813;DHT22;11573;51.334;3.244;2023-08-08T07:38:48;16.90;99.90
22813;DHT22;11573;51.334;3.244;2023-08-08T07:41:15;17.10;99.90
22813;DHT22;11573;51.334;3.244;2023-08-08T07:43:42;17.20;99.90
22813;DHT22;11573;51.334;3.244;2023-08-08T07:46:09;17.50;99.90
22813;DHT22;11573;51.334;3.244;2023-08-08T07:48:36;17.70;99.90
22813;DHT22;11573;51.334;3.244;2023-08-08T07:51:03;17.90;99.90
22813;DHT22;11573;51.334;3.244;2023-08-08T07:53:30;17.80;99.90
22813;DHT22;11573;51.334;3.244;2023-08-08T07:55:57;17.70;99.90
22813;DHT22;11573;51.334;3.244;2023-08-08T07:58:24;17.80;99.90
22813;DHT22;11573;51.334;3.244;2023-08-08T08:00:53;17.90;99.90
22813;DHT22;11573;51.334;3.244;2023-08-08T08:03:22;18.00;99.90
22813;DHT22;11573;51.334;3.244;2023-08-08T08:05:49;18.20;99.90
22813;DHT22;11573;51.334;3.244;2023-08-08T08:08:16;18.50;99.90
22813;DHT22;11573;51.334;3.244;2023-08-08T08:10:43;18.50;99.90
22813;DHT22;11573;51.334;3.244;2023-08-08T08:13:10;18.80;99.90
22813;DHT22;11573;51.334;3.244;2023-08-08T08:15:38;18.90;99.90
22813;DHT22;11573;51.334;3.244;2023-08-08T08:18:05;18.80;99.90
22813;DHT22;11573;51.334;3.244;2023-08-08T08:20:32;18.70;99.90
22813;DHT22;11573;51.334;3.244;2023-08-08T08:22:59;19.00;99.90
22813;DHT22;11573;51.334;3.244;2023-08-08T08:25:26;19.10;99.90
22813;DHT22;11573;51.334;3.244;2023-08-08T08:27:53;19.10;99.90
22813;DHT22;11573;51.334;3.244;2023-08-08T08:30:20;19.50;99.90
22813;DHT22;11573;51.334;3.244;2023-08-08T08:32:49;19.80;99.90
22813;DHT22;11573;51.334;3.244;2023-08-08T08:35:17;20.10;99.90
22813;DHT22;11573;51.334;3.244;2023-08-08T08:37:44;19.90;99.90
22813;DHT22;11573;51.334;3.244;2023-08-08T08:40:11;19.90;99.90
22813;DHT22;11573;51.334;3.244;2023-08-08T08:42:39;20.10;99.90
22813;DHT22;11573;51.334;3.244;2023-08-08T08:45:09;20.30;99.90
22813;DHT22;11573;51.334;3.244;2023-08-08T08:47:37;20.50;99.90
22813;DHT22;11573;51.334;3.244;2023-08-08T08:50:07;20.50;99.90
22813;DHT22;11573;51.334;3.244;2023-08-08T08:52:34;20.20;99.90
22813;DHT22;11573;51.334;3.244;2023-08-08T08:55:02;19.80;99.90
22813;DHT22;11573;51.334;3.244;2023-08-08T08:57:29;19.40;99.90
22813;DHT22;11573;51.334;3.244;2023-08-08T08:59:56;19.20;99.90
22813;DHT22;11573;51.334;3.244;2023-08-08T09:02:24;19.40;99.90
22813;DHT22;11573;51.334;3.244;2023-08-08T09:04:51;19.30;99.90
22813;DHT22;11573;51.334;3.244;2023-08-08T09:07:20;19.30;99.90
22813;DHT22;11573;51.334;3.244;2023-08-08T09:09:49;19.70;99.90
22813;DHT22;11573;51.334;3.244;2023-08-08T09:12:16;20.00;99.90
22813;DHT22;11573;51.334;3.244;2023-08-08T09:14:45;20.00;99.90
22813;DHT22;11573;51.334;3.244;2023-08-08T09:17:13;20.00;99.90
22813;DHT22;11573;51.334;3.244;2023-08-08T09:19:44;20.20;99.90
22813;DHT22;11573;51.334;3.244;2023-08-08T09:22:13;20.10;99.90
22813;DHT22;11573;51.334;3.244;2023-08-08T09:24:41;19.90;99.90
22813;DHT22;11573;51.334;3.244;2023-08-08T09:27:09;20.10;99.90
22813;DHT22;11573;51.334;3.244;2023-08-08T09:29:36;20.00;99.90
22813;DHT22;11573;51.334;3.244;2023-08-08T09:32:05;20.00;99.90
22813;DHT22;11573;51.334;3.244;2023-08-08T09:34:33;20.00;99.90
22813;DHT22;11573;51.334;3.244;2023-08-08T09:37:00;19.90;99.90
22813;DHT22;11573;51.334;3.244;2023-08-08T09:39:28;19.70;99.90
22813;DHT22;11573;51.334;3.244;2023-08-08T09:41:58;19.60;99.90
22813;DHT22;11573;51.334;3.244;2023-08-08T09:44:26;19.60;99.90
22813;DHT22;11573;51.334;3.244;2023-08-08T09:46:55;19.60;99.90
22813;DHT22;11573;51.334;3.244;2023-08-08T09:49:22;19.60;99.90
22813;DHT22;11573;51.334;3.244;2023-08-08T09:51:50;19.40;99.90
22813;DHT22;11573;51.334;3.244;2023-08-08T09:54:17;19.50;99.90
22813;DHT22;11573;51.334;3.244;2023-08-08T09:56:45;19.60;99.90
22813;DHT22;11573;51.334;3.244;2023-08-08T09:59:13;19.60;99.90
22813;DHT22;11573;51.334;3.244;2023-08-08T10:01:41;19.70;99.90
22813;DHT22;11573;51.334;3.244;2023-08-08T10:04:11;19.80;99.90
22813;DHT22;11573;51.334;3.244;2023-08-08T10:06:38;20.10;99.90
22813;DHT22;11573;51.334;3.244;2023-08-08T10:09:05;20.10;99.90
22813;DHT22;11573;51.334;3.244;2023-08-08T10:11:33;20.30;99.90
22813;DHT22;11573;51.334;3.244;2023-08-08T10:14:04;20.40;99.90
22813;DHT22;11573;51.334;3.244;2023-08-08T10:16:34;20.10;99.90
22813;DHT22;11573;51.334;3.244;2023-08-08T10:19:03;20.00;99.90
22813;DHT22;11573;51.334;3.244;2023-08-08T10:21:34;19.60;99.90
22813;DHT22;11573;51.334;3.244;2023-08-08T10:24:07;19.40;99.90
22813;DHT22;11573;51.334;3.244;2023-08-08T10:26:50;19.60;99.90
22813;DHT22;11573;51.334;3.244;2023-08-08T10:29:18;19.40;99.90
22813;DHT22;11573;51.334;3.244;2023-08-08T10:31:53;19.90;99.90
22813;DHT22;11573;51.334;3.244;2023-08-08T10:34:24;20.10;99.90
22813;DHT22;11573;51.334;3.244;2023-08-08T10:36:53;20.20;99.90
22813;DHT22;11573;51.334;3.244;2023-08-08T10:39:20;20.20;99.90
22813;DHT22;11573;51.334;3.244;2023-08-08T10:41:50;20.60;99.90
22813;DHT22;11573;51.334;3.244;2023-08-08T10:44:24;20.50;99.90
22813;DHT22;11573;51.334;3.244;2023-08-08T10:46:53;20.10;99.90
22813;DHT22;11573;51.334;3.244;2023-08-08T10:49:23;20.30;99.90
22813;DHT22;11573;51.334;3.244;2023-08-08T10:51:50;20.10;99.90
22813;DHT22;11573;51.334;3.244;2023-08-08T10:54:23;20.30;99.90
22813;DHT22;11573;51.334;3.244;2023-08-08T10:56:56;20.50;99.90
22813;DHT22;11573;51.334;3.244;2023-08-08T10:59:27;20.50;99.90
22813;DHT22;11573;51.334;3.244;2023-08-08T11:01:56;20.60;99.90
22813;DHT22;11573;51.334;3.244;2023-08-08T11:04:24;20.70;99.90
22813;DHT22;11573;51.334;3.244;2023-08-08T11:06:53;20.30;99.90
22813;DHT22;11573;51.334;3.244;2023-08-08T11:09:21;20.10;99.90
22813;DHT22;11573;51.334;3.244;2023-08-08T11:11:48;20.10;99.90
22813;DHT22;11573;51.334;3.244;2023-08-08T11:14:17;20.20;99.90
22813;DHT22;11573;51.334;3.244;2023-08-08T11:16:45;20.20;99.90
22813;DHT22;11573;51.334;3.244;2023-08-08T11:19:13;20.50;99.90
22813;DHT22;11573;51.334;3.244;2023-08-08T11:21:42;20.40;99.90
22813;DHT22;11573;51.334;3.244;2023-08-08T11:24:10;20.70;99.90
22813;DHT22;11573;51.334;3.244;2023-08-08T11:26:40;21.10;99.90
22813;DHT22;11573;51.334;3.244;2023-08-08T11:29:08;21.40;99.90
22813;DHT22;11573;51.334;3.244;2023-08-08T11:31:35;21.50;99.90
22813;DHT22;11573;51.334;3.244;2023-08-08T11:34:04;21.70;99.90
22813;DHT22;11573;51.334;3.244;2023-08-08T11:36:33;22.00;99.90
22813;DHT22;11573;51.334;3.244;2023-08-08T11:39:02;22.00;99.90
22813;DHT22;11573;51.334;3.244;2023-08-08T11:41:39;21.80;99.90
22813;DHT22;11573;51.334;3.244;2023-08-08T11:44:07;21.30;99.90
22813;DHT22;11573;51.334;3.244;2023-08-08T11:46:45;21.10;99.90
22813;DHT22;11573;51.334;3.244;2023-08-08T11:49:16;20.70;99.90
22813;DHT22;11573;51.334;3.244;2023-08-08T11:51:45;20.30;99.90
22813;DHT22;11573;51.334;3.244;2023-08-08T11:54:13;20.40;99.90
22813;DHT22;11573;51.334;3.244;2023-08-08T11:56:40;20.60;99.90
22813;DHT22;11573;51.334;3.244;2023-08-08T11:59:07;20.30;99.90
22813;DHT22;11573;51.334;3.244;2023-08-08T12:01:35;20.30;99.90
22813;DHT22;11573;51.334;3.244;2023-08-08T12:04:09;20.50;99.90
22813;DHT22;11573;51.334;3.244;2023-08-08T12:06:40;20.90;99.90
22813;DHT22;11573;51.334;3.244;2023-08-08T12:09:07;21.00;99.90
22813;DHT22;11573;51.334;3.244;2023-08-08T12:11:35;21.10;99.90
22813;DHT22;11573;51.334;3.244;2023-08-08T12:14:03;20.90;99.90
22813;DHT22;11573;51.334;3.244;2023-08-08T12:16:30;20.80;99.90
22813;DHT22;11573;51.334;3.244;2023-08-08T12:19:06;20.80;99.90
22813;DHT22;11573;51.334;3.244;2023-08-08T12:21:33;20.60;99.90
22813;DHT22;11573;51.334;3.244;2023-08-08T12:24:01;20.50;99.90
22813;DHT22;11573;51.334;3.244;2023-08-08T12:26:29;20.90;99.90
22813;DHT22;11573;51.334;3.244;2023-08-08T12:28:56;21.30;99.90
22813;DHT22;11573;51.334;3.244;2023-08-08T12:31:23;21.70;99.90
22813;DHT22;11573;51.334;3.244;2023-08-08T12:33:51;22.20;99.90
22813;DHT22;11573;51.334;3.244;2023-08-08T12:36:21;21.90;99.90
22813;DHT22;11573;51.334;3.244;2023-08-08T12:38:48;21.70;99.90
22813;DHT22;11573;51.334;3.244;2023-08-08T12:41:15;21.80;99.90
22813;DHT22;11573;51.334;3.244;2023-08-08T12:43:43;21.80;99.90
22813;DHT22;11573;51.334;3.244;2023-08-08T12:46:10;21.70;99.90
22813;DHT22;11573;51.334;3.244;2023-08-08T12:48:37;21.70;99.90
22813;DHT22;11573;51.334;3.244;2023-08-08T12:51:04;21.80;99.90
22813;DHT22;11573;51.334;3.244;2023-08-08T12:53:32;22.20;99.90
22813;DHT22;11573;51.334;3.244;2023-08-08T12:55:59;21.90;99.90
22813;DHT22;11573;51.334;3.244;2023-08-08T12:58:26;22.00;99.90
22813;DHT22;11573;51.334;3.244;2023-08-08T13:00:53;21.60;99.90
22813;DHT22;11573;51.334;3.244;2023-08-08T13:03:20;21.30;99.90
22813;DHT22;11573;51.334;3.244;2023-08-08T13:05:48;21.00;99.90
22813;DHT22;11573;51.334;3.244;2023-08-08T13:08:15;21.20;99.90
22813;DHT22;11573;51.334;3.244;2023-08-08T13:10:42;21.50;99.90
22813;DHT22;11573;51.334;3.244;2023-08-08T13:13:09;21.60;99.90
22813;DHT22;11573;51.334;3.244;2023-08-08T13:15:36;21.30;99.90
22813;DHT22;11573;51.334;3.244;2023-08-08T13:18:03;21.10;99.90
22813;DHT22;11573;51.334;3.244;2023-08-08T13:20:31;21.10;99.90
22813;DHT22;11573;51.334;3.244;2023-08-08T13:22:58;21.10;99.90
22813;DHT22;11573;51.334;3.244;2023-08-08T13:25:25;21.60;99.90
22813;DHT22;11573;51.334;3.244;2023-08-08T13:27:52;21.40;99.90
22813;DHT22;11573;51.334;3.244;2023-08-08T13:30:19;21.20;99.90
22813;DHT22;11573;51.334;3.244;2023-08-08T13:32:48;21.10;99.90
22813;DHT22;11573;51.334;3.244;2023-08-08T13:35:15;20.80;99.90
22813;DHT22;11573;51.334;3.244;2023-08-08T13:37:42;20.80;99.90
22813;DHT22;11573;51.334;3.244;2023-08-08T13:40:11;20.80;99.90
22813;DHT22;11573;51.334;3.244;2023-08-08T13:42:38;21.50;99.90
22813;DHT22;11573;51.334;3.244;2023-08-08T13:45:05;21.50;99.90
22813;DHT22;11573;51.334;3.244;2023-08-08T13:47:33;20.70;99.90
22813;DHT22;11573;51.334;3.244;2023-08-08T13:50:00;20.40;99.90
22813;DHT22;11573;51.334;3.244;2023-08-08T13:52:27;20.20;99.90
22813;DHT22;11573;51.334;3.244;2023-08-08T13:54:55;19.90;99.90
22813;DHT22;11573;51.334;3.244;2023-08-08T13:57:22;19.60;99.90
22813;DHT22;11573;51.334;3.244;2023-08-08T13:59:49;19.40;99.90
22813;DHT22;11573;51.334;3.244;2023-08-08T14:02:16;19.10;99.90
22813;DHT22;11573;51.334;3.244;2023-08-08T14:04:45;19.10;99.90
22813;DHT22;11573;51.334;3.244;2023-08-08T14:07:12;19.00;99.90
22813;DHT22;11573;51.334;3.244;2023-08-08T14:09:39;19.10;99.90
22813;DHT22;11573;51.334;3.244;2023-08-08T14:12:06;19.20;99.90
22813;DHT22;11573;51.334;3.244;2023-08-08T14:14:33;19.30;99.90
22813;DHT22;11573;51.334;3.244;2023-08-08T14:17:00;19.10;99.90
22813;DHT22;11573;51.334;3.244;2023-08-08T14:19:27;19.10;99.90
22813;DHT22;11573;51.334;3.244;2023-08-08T14:21:54;19.30;99.90
22813;DHT22;11573;51.334;3.244;2023-08-08T14:24:21;19.60;99.90
22813;DHT22;11573;51.334;3.244;2023-08-08T14:26:48;19.50;99.90
22813;DHT22;11573;51.334;3.244;2023-08-08T14:29:15;19.40;99.90
22813;DHT22;11573;51.334;3.244;2023-08-08T14:31:42;19.30;99.90
22813;DHT22;11573;51.334;3.244;2023-08-08T14:34:30;19.30;99.90
22813;DHT22;11573;51.334;3.244;2023-08-08T14:36:58;19.10;99.90
22813;DHT22;11573;51.334;3.244;2023-08-08T14:39:25;19.20;99.90
22813;DHT22;11573;51.334;3.244;2023-08-08T14:41:52;18.90;99.90
22813;DHT22;11573;51.334;3.244;2023-08-08T14:44:19;18.80;99.90
22813;DHT22;11573;51.334;3.244;2023-08-08T14:46:47;18.50;99.90
22813;DHT22;11573;51.334;3.244;2023-08-08T14:49:14;18.40;99.90
22813;DHT22;11573;51.334;3.244;2023-08-08T14:51:40;18.50;99.90
22813;DHT22;11573;51.334;3.244;2023-08-08T14:54:07;18.50;99.90
22813;DHT22;11573;51.334;3.244;2023-08-08T14:56:34;18.40;99.90
22813;DHT22;11573;51.334;3.244;2023-08-08T14:59:02;18.20;99.90
22813;DHT22;11573;51.334;3.244;2023-08-08T15:01:29;18.00;99.90
22813;DHT22;11573;51.334;3.244;2023-08-08T15:03:57;18.00;99.90
22813;DHT22;11573;51.334;3.244;2023-08-08T15:06:24;17.90;99.90
22813;DHT22;11573;51.334;3.244;2023-08-08T15:08:51;17.80;99.90
22813;DHT22;11573;51.334;3.244;2023-08-08T15:11:18;17.70;99.90
22813;DHT22;11573;51.334;3.244;2023-08-08T15:13:45;17.50;99.90
22813;DHT22;11573;51.334;3.244;2023-08-08T15:16:12;17.50;99.90
22813;DHT22;11573;51.334;3.244;2023-08-08T15:18:41;17.50;99.90
22813;DHT22;11573;51.334;3.244;2023-08-08T15:21:08;17.40;99.90
22813;DHT22;11573;51.334;3.244;2023-08-08T15:23:35;17.30;99.90
22813;DHT22;11573;51.334;3.244;2023-08-08T15:26:02;17.30;99.90
22813;DHT22;11573;51.334;3.244;2023-08-08T15:28:29;17.30;99.90
22813;DHT22;11573;51.334;3.244;2023-08-08T15:30:56;17.30;99.90
22813;DHT22;11573;51.334;3.244;2023-08-08T15:33:23;17.20;99.90